sensor_id;sensor_type;location;lat;lon;timestamp;pressure;altitude;pressure_sealevel;temperature;humidity
40596;BME280;26304;48.794;9.820;2023-04-26T00:05:10;96298.53;;;17.69;50.33
40596;BME280;26304;48.794;9.820;2023-04-26T00:10:52;96295.91;;;17.69;49.88
40596;BME280;26304;48.794;9.820;2023-04-26T00:16:36;96294.00;;;17.66;49.77
40596;BME280;26304;48.794;9.820;2023-04-26T00:22:19;96295.53;;;17.67;50.00
40596;BME280;26304;48.794;9.820;2023-04-26T00:28:01;96298.16;;;17.67;50.14
40596;BME280;26304;48.794;9.820;2023-04-26T00:33:45;96304.19;;;17.71;50.18
40596;BME280;26304;48.794;9.820;2023-04-26T00:39:27;96295.13;;;17.65;50.32
40596;BME280;26304;48.794;9.820;2023-04-26T00:45:10;96300.41;;;17.65;50.04
40596;BME280;26304;48.794;9.820;2023-04-26T00:50:54;96307.13;;;17.63;49.95
40596;BME280;26304;48.794;9.820;2023-04-26T00:56:38;96309.41;;;17.64;49.85
40596;BME280;26304;48.794;9.820;2023-04-26T01:02:20;96312.03;;;17.64;50.16
40596;BME280;26304;48.794;9.820;2023-04-26T01:08:05;96312.38;;;17.63;50.28
40596;BME280;26304;48.794;9.820;2023-04-26T01:13:49;96309.41;;;17.64;50.53
40596;BME280;26304;48.794;9.820;2023-04-26T01:19:32;96310.13;;;17.61;49.95
40596;BME280;26304;48.794;9.820;2023-04-26T01:25:18;96308.22;;;17.58;50.01
40596;BME280;26304;48.794;9.820;2023-04-26T01:31:02;96313.47;;;17.58;49.95
40596;BME280;26304;48.794;9.820;2023-04-26T01:36:44;96309.34;;;17.57;50.02
40596;BME280;26304;48.794;9.820;2023-04-26T01:42:28;96313.53;;;17.61;50.37
40596;BME280;26304;48.794;9.820;2023-04-26T01:48:10;96313.09;;;17.56;50.58
40596;BME280;26304;48.794;9.820;2023-04-26T01:53:53;96317.19;;;17.53;50.12
40596;BME280;26304;48.794;9.820;2023-04-26T01:59:36;96311.16;;;17.49;50.00
40596;BME280;26304;48.794;9.820;2023-04-26T02:05:19;96301.75;;;17.48;50.23
40596;BME280;26304;48.794;9.820;2023-04-26T02:11:01;96314.91;;;17.48;50.02
40596;BME280;26304;48.794;9.820;2023-04-26T02:16:45;96302.91;;;17.51;50.01
40596;BME280;26304;48.794;9.820;2023-04-26T02:22:27;96299.53;;;17.50;50.07
40596;BME280;26304;48.794;9.820;2023-04-26T02:28:10;96304.03;;;17.50;49.96
40596;BME280;26304;48.794;9.820;2023-04-26T02:33:53;96310.44;;;17.49;50.06
40596;BME280;26304;48.794;9.820;2023-04-26T02:39:36;96307.03;;;17.48;50.48
40596;BME280;26304;48.794;9.820;2023-04-26T02:45:18;96310.81;;;17.51;50.09
40596;BME280;26304;48.794;9.820;2023-04-26T02:51:03;96307.00;;;17.45;50.61
40596;BME280;26304;48.794;9.820;2023-04-26T02:56:45;96304.72;;;17.39;50.23
40596;BME280;26304;48.794;9.820;2023-04-26T03:02:27;96308.81;;;17.37;49.97
40596;BME280;26304;48.794;9.820;2023-04-26T03:08:11;96310.69;;;17.36;50.05
40596;BME280;26304;48.794;9.820;2023-04-26T03:13:54;96308.44;;;17.35;50.36
40596;BME280;26304;48.794;9.820;2023-04-26T03:19:36;96297.91;;;17.35;50.08
40596;BME280;26304;48.794;9.820;2023-04-26T03:25:20;96305.00;;;17.31;50.12
40596;BME280;26304;48.794;9.820;2023-04-26T03:31:02;96304.63;;;17.29;50.43
40596;BME280;26304;48.794;9.820;2023-04-26T03:36:45;96315.56;;;17.34;50.29
40596;BME280;26304;48.794;9.820;2023-04-26T03:42:28;96319.66;;;17.32;50.48
40596;BME280;26304;48.794;9.820;2023-04-26T03:48:11;96327.88;;;17.27;50.74
40596;BME280;26304;48.794;9.820;2023-04-26T03:53:53;96330.50;;;17.75;50.27
40596;BME280;26304;48.794;9.820;2023-04-26T03:59:37;96324.38;;;19.14;47.46
40596;BME280;26304;48.794;9.820;2023-04-26T04:05:19;96327.78;;;20.12;45.61
40596;BME280;26304;48.794;9.820;2023-04-26T04:11:01;96330.28;;;20.48;45.35
40596;BME280;26304;48.794;9.820;2023-04-26T04:16:45;96334.00;;;20.61;45.61
40596;BME280;26304;48.794;9.820;2023-04-26T04:22:28;96331.66;;;20.85;45.47
40596;BME280;26304;48.794;9.820;2023-04-26T04:28:10;96335.13;;;20.75;45.92
40596;BME280;26304;48.794;9.820;2023-04-26T04:33:54;96345.06;;;20.35;48.23
40596;BME280;26304;48.794;9.820;2023-04-26T04:39:36;96339.41;;;20.29;47.87
40596;BME280;26304;48.794;9.820;2023-04-26T04:45:19;96335.69;;;20.01;48.93
40596;BME280;26304;48.794;9.820;2023-04-26T04:51:03;96331.22;;;19.80;49.24
40596;BME280;26304;48.794;9.820;2023-04-26T04:56:46;96336.44;;;19.73;48.60
40596;BME280;26304;48.794;9.820;2023-04-26T05:02:28;96340.22;;;19.50;49.13
40596;BME280;26304;48.794;9.820;2023-04-26T05:08:12;96340.97;;;19.40;49.24
40596;BME280;26304;48.794;9.820;2023-04-26T05:13:54;96360.16;;;19.22;50.01
40596;BME280;26304;48.794;9.820;2023-04-26T05:19:37;96362.78;;;19.19;49.72
40596;BME280;26304;48.794;9.820;2023-04-26T05:25:21;96377.09;;;19.25;49.63
40596;BME280;26304;48.794;9.820;2023-04-26T05:31:03;96375.94;;;19.04;49.15
40596;BME280;26304;48.794;9.820;2023-04-26T05:36:45;96384.56;;;18.98;49.92
40596;BME280;26304;48.794;9.820;2023-04-26T05:42:29;96398.09;;;18.93;49.79
40596;BME280;26304;48.794;9.820;2023-04-26T05:48:11;96393.94;;;18.84;49.76
40596;BME280;26304;48.794;9.820;2023-04-26T05:53:54;96402.50;;;18.74;50.10
40596;BME280;26304;48.794;9.820;2023-04-26T05:59:39;96399.09;;;18.66;50.14
40596;BME280;26304;48.794;9.820;2023-04-26T06:05:22;96399.06;;;18.63;50.21
40596;BME280;26304;48.794;9.820;2023-04-26T06:11:07;96408.81;;;18.59;50.40
40596;BME280;26304;48.794;9.820;2023-04-26T06:16:51;96406.59;;;18.57;49.97
40596;BME280;26304;48.794;9.820;2023-04-26T06:22:33;96402.81;;;18.55;49.98
40596;BME280;26304;48.794;9.820;2023-04-26T06:28:15;96403.16;;;18.49;49.77
40596;BME280;26304;48.794;9.820;2023-04-26T06:33:59;96399.75;;;18.49;49.46
40596;BME280;26304;48.794;9.820;2023-04-26T06:39:43;96413.63;;;18.42;49.49
40596;BME280;26304;48.794;9.820;2023-04-26T06:45:25;96417.41;;;18.41;49.21
40596;BME280;26304;48.794;9.820;2023-04-26T06:51:09;96418.19;;;18.49;48.72
40596;BME280;26304;48.794;9.820;2023-04-26T06:56:52;96415.91;;;18.44;49.40
40596;BME280;26304;48.794;9.820;2023-04-26T07:02:34;96421.81;;;18.30;50.44
40596;BME280;26304;48.794;9.820;2023-04-26T07:08:18;96420.41;;;18.43;50.24
40596;BME280;26304;48.794;9.820;2023-04-26T07:14:00;96415.88;;;18.40;50.41
40596;BME280;26304;48.794;9.820;2023-04-26T07:19:43;96410.31;;;18.52;50.24
40596;BME280;26304;48.794;9.820;2023-04-26T07:25:26;96413.72;;;18.57;50.06
40596;BME280;26304;48.794;9.820;2023-04-26T07:31:09;96408.47;;;18.60;50.66
40596;BME280;26304;48.794;9.820;2023-04-26T07:36:54;96400.19;;;18.62;50.79
40596;BME280;26304;48.794;9.820;2023-04-26T07:42:38;96406.97;;;18.59;50.64
40596;BME280;26304;48.794;9.820;2023-04-26T07:48:21;96399.50;;;18.68;50.48
40596;BME280;26304;48.794;9.820;2023-04-26T07:54:04;96409.25;;;18.68;50.75
40596;BME280;26304;48.794;9.820;2023-04-26T07:59:48;96405.13;;;18.74;50.62
40596;BME280;26304;48.794;9.820;2023-04-26T08:05:30;96413.78;;;18.71;50.86
40596;BME280;26304;48.794;9.820;2023-04-26T08:11:12;96419.09;;;18.78;50.40
40596;BME280;26304;48.794;9.820;2023-04-26T08:16:56;96415.31;;;18.76;50.80
40596;BME280;26304;48.794;9.820;2023-04-26T08:22:38;96405.16;;;18.78;50.98
40596;BME280;26304;48.794;9.820;2023-04-26T08:28:22;96408.94;;;18.77;50.83
40596;BME280;26304;48.794;9.820;2023-04-26T08:34:07;96419.09;;;18.78;50.98
40596;BME280;26304;48.794;9.820;2023-04-26T08:39:51;96419.81;;;18.75;50.96
40596;BME280;26304;48.794;9.820;2023-04-26T08:45:34;96416.09;;;18.80;51.12
40596;BME280;26304;48.794;9.820;2023-04-26T08:51:20;96416.47;;;18.78;50.99
40596;BME280;26304;48.794;9.820;2023-04-26T08:57:06;96422.91;;;18.84;51.16
40596;BME280;26304;48.794;9.820;2023-04-26T09:02:50;96422.91;;;18.84;50.91
40596;BME280;26304;48.794;9.820;2023-04-26T09:08:35;96421.81;;;18.96;50.76
40596;BME280;26304;48.794;9.820;2023-04-26T09:14:21;96424.44;;;18.89;50.82
40596;BME280;26304;48.794;9.820;2023-04-26T09:20:19;96415.38;;;18.86;50.25
40596;BME280;26304;48.794;9.820;2023-04-26T09:26:18;96416.91;;;18.87;50.58
40596;BME280;26304;48.794;9.820;2023-04-26T09:32:01;96403.31;;;18.82;50.36
40596;BME280;26304;48.794;9.820;2023-04-26T09:37:50;96404.84;;;18.90;50.04
40596;BME280;26304;48.794;9.820;2023-04-26T09:43:37;96407.09;;;18.84;50.15
40596;BME280;26304;48.794;9.820;2023-04-26T09:49:19;96402.56;;;18.81;50.37
40596;BME280;26304;48.794;9.820;2023-04-26T09:55:02;96391.97;;;18.78;50.26
40596;BME280;26304;48.794;9.820;2023-04-26T10:00:49;96392.72;;;18.75;49.85
40596;BME280;26304;48.794;9.820;2023-04-26T10:06:32;96385.22;;;18.73;50.13
40596;BME280;26304;48.794;9.820;2023-04-26T10:12:16;96384.44;;;18.73;49.57
40596;BME280;26304;48.794;9.820;2023-04-26T10:18:00;96373.91;;;18.69;49.75
40596;BME280;26304;48.794;9.820;2023-04-26T10:23:43;96379.94;;;18.73;49.54
40596;BME280;26304;48.794;9.820;2023-04-26T10:30:05;96375.44;;;18.74;49.74
40596;BME280;26304;48.794;9.820;2023-04-26T10:36:08;96373.91;;;18.73;49.85
40596;BME280;26304;48.794;9.820;2023-04-26T10:41:51;96367.13;;;18.68;49.80
40596;BME280;26304;48.794;9.820;2023-04-26T10:48:15;96372.00;;;18.66;49.43
40596;BME280;26304;48.794;9.820;2023-04-26T10:54:00;96375.38;;;18.63;49.55
40596;BME280;26304;48.794;9.820;2023-04-26T11:00:19;96369.38;;;18.62;49.62
40596;BME280;26304;48.794;9.820;2023-04-26T11:06:05;96371.63;;;18.64;49.76
40596;BME280;26304;48.794;9.820;2023-04-26T11:11:58;96372.81;;;18.77;50.01
40596;BME280;26304;48.794;9.820;2023-04-26T11:17:40;96370.91;;;18.74;49.47
40596;BME280;26304;48.794;9.820;2023-04-26T11:23:25;96361.53;;;18.80;50.30
40596;BME280;26304;48.794;9.820;2023-04-26T11:29:09;96348.44;;;18.95;50.02
40596;BME280;26304;48.794;9.820;2023-04-26T11:34:59;96335.25;;;18.98;50.32
40596;BME280;26304;48.794;9.820;2023-04-26T11:40:42;96335.66;;;19.04;50.53
40596;BME280;26304;48.794;9.820;2023-04-26T11:46:26;96319.47;;;19.02;50.73
40596;BME280;26304;48.794;9.820;2023-04-26T11:52:09;96321.34;;;19.01;50.64
40596;BME280;26304;48.794;9.820;2023-04-26T11:57:51;96310.06;;;18.97;50.85
40596;BME280;26304;48.794;9.820;2023-04-26T12:03:35;96312.31;;;19.06;50.78
40596;BME280;26304;48.794;9.820;2023-04-26T12:09:21;96304.78;;;19.08;50.72
40596;BME280;26304;48.794;9.820;2023-04-26T12:15:08;96292.75;;;19.07;51.09
40596;BME280;26304;48.794;9.820;2023-04-26T12:20:56;96298.03;;;19.14;50.67
40596;BME280;26304;48.794;9.820;2023-04-26T12:26:41;96292.00;;;19.17;50.83
40596;BME280;26304;48.794;9.820;2023-04-26T12:32:24;96289.38;;;19.24;50.76
40596;BME280;26304;48.794;9.820;2023-04-26T12:38:08;96289.00;;;19.51;50.36
40596;BME280;26304;48.794;9.820;2023-04-26T12:43:51;96284.09;;;19.42;50.21
40596;BME280;26304;48.794;9.820;2023-04-26T12:49:33;96280.72;;;19.42;50.48
40596;BME280;26304;48.794;9.820;2023-04-26T12:55:19;96273.19;;;19.44;50.79
40596;BME280;26304;48.794;9.820;2023-04-26T13:01:02;96273.19;;;19.44;50.62
40596;BME280;26304;48.794;9.820;2023-04-26T13:06:44;96269.41;;;19.59;50.11
40596;BME280;26304;48.794;9.820;2023-04-26T13:12:29;96272.44;;;19.58;50.24
40596;BME280;26304;48.794;9.820;2023-04-26T13:18:12;96277.69;;;19.54;49.85
40596;BME280;26304;48.794;9.820;2023-04-26T13:23:55;96277.66;;;19.69;50.12
40596;BME280;26304;48.794;9.820;2023-04-26T13:29:39;96266.38;;;19.68;50.10
40596;BME280;26304;48.794;9.820;2023-04-26T13:35:22;96265.63;;;19.60;48.95
40596;BME280;26304;48.794;9.820;2023-04-26T13:41:04;96256.63;;;19.26;47.74
40596;BME280;26304;48.794;9.820;2023-04-26T13:46:48;96269.44;;;19.16;45.98
40596;BME280;26304;48.794;9.820;2023-04-26T13:52:31;96260.75;;;19.05;45.01
40596;BME280;26304;48.794;9.820;2023-04-26T13:58:13;96252.84;;;19.05;44.46
40596;BME280;26304;48.794;9.820;2023-04-26T14:03:57;96252.84;;;18.98;44.67
40596;BME280;26304;48.794;9.820;2023-04-26T14:09:40;96248.31;;;18.95;44.41
40596;BME280;26304;48.794;9.820;2023-04-26T14:15:22;96242.28;;;18.91;44.64
40596;BME280;26304;48.794;9.820;2023-04-26T14:21:07;96251.72;;;18.92;45.03
40596;BME280;26304;48.794;9.820;2023-04-26T14:26:49;96254.72;;;18.94;45.03
40596;BME280;26304;48.794;9.820;2023-04-26T14:32:32;96253.59;;;18.91;44.00
40596;BME280;26304;48.794;9.820;2023-04-26T14:38:16;96258.09;;;18.87;43.15
40596;BME280;26304;48.794;9.820;2023-04-26T14:43:58;96237.78;;;18.84;42.42
40596;BME280;26304;48.794;9.820;2023-04-26T14:49:41;96234.38;;;18.83;43.34
40596;BME280;26304;48.794;9.820;2023-04-26T14:55:25;96240.41;;;18.84;42.77
40596;BME280;26304;48.794;9.820;2023-04-26T15:01:08;96233.28;;;18.88;43.03
40596;BME280;26304;48.794;9.820;2023-04-26T15:06:50;96237.75;;;18.73;42.70
40596;BME280;26304;48.794;9.820;2023-04-26T15:12:34;96238.50;;;18.77;42.55
40596;BME280;26304;48.794;9.820;2023-04-26T15:18:17;96241.50;;;18.79;42.91
40596;BME280;26304;48.794;9.820;2023-04-26T15:23:59;96236.28;;;18.86;42.34
40596;BME280;26304;48.794;9.820;2023-04-26T15:29:43;96238.16;;;18.93;41.22
40596;BME280;26304;48.794;9.820;2023-04-26T15:35:26;96240.81;;;18.86;41.16
40596;BME280;26304;48.794;9.820;2023-04-26T15:41:08;96237.03;;;19.05;40.53
40596;BME280;26304;48.794;9.820;2023-04-26T15:46:52;96230.63;;;18.95;40.41
40596;BME280;26304;48.794;9.820;2023-04-26T15:52:36;96228.00;;;18.92;40.56
40596;BME280;26304;48.794;9.820;2023-04-26T15:58:19;96225.03;;;19.15;40.41
40596;BME280;26304;48.794;9.820;2023-04-26T16:04:03;96230.97;;;19.51;41.00
40596;BME280;26304;48.794;9.820;2023-04-26T16:09:46;96223.06;;;19.66;41.20
40596;BME280;26304;48.794;9.820;2023-04-26T16:15:28;96217.03;;;19.72;41.21
40596;BME280;26304;48.794;9.820;2023-04-26T16:21:13;96224.53;;;19.85;41.33
40596;BME280;26304;48.794;9.820;2023-04-26T16:26:56;96216.25;;;19.90;42.05
40596;BME280;26304;48.794;9.820;2023-04-26T16:32:38;96219.22;;;19.95;41.89
40596;BME280;26304;48.794;9.820;2023-04-26T16:38:22;96221.47;;;20.01;42.32
40596;BME280;26304;48.794;9.820;2023-04-26T16:44:05;96225.25;;;20.03;42.07
40596;BME280;26304;48.794;9.820;2023-04-26T16:49:47;96230.16;;;20.01;42.42
40596;BME280;26304;48.794;9.820;2023-04-26T16:55:31;96233.09;;;20.18;42.88
40596;BME280;26304;48.794;9.820;2023-04-26T17:01:13;96234.53;;;20.29;43.67
40596;BME280;26304;48.794;9.820;2023-04-26T17:06:56;96233.34;;;20.45;45.32
40596;BME280;26304;48.794;9.820;2023-04-26T17:12:40;96235.22;;;20.48;46.36
40596;BME280;26304;48.794;9.820;2023-04-26T17:18:22;96237.84;;;20.51;47.33
40596;BME280;26304;48.794;9.820;2023-04-26T17:24:05;96240.47;;;20.55;46.27
40596;BME280;26304;48.794;9.820;2023-04-26T17:29:49;96250.25;;;20.65;46.28
40596;BME280;26304;48.794;9.820;2023-04-26T17:35:32;96241.88;;;20.78;46.09
40596;BME280;26304;48.794;9.820;2023-04-26T17:41:15;96252.50;;;20.63;45.52
40596;BME280;26304;48.794;9.820;2023-04-26T17:46:59;96252.97;;;20.47;46.02
40596;BME280;26304;48.794;9.820;2023-04-26T17:52:42;96255.97;;;20.46;46.19
40596;BME280;26304;48.794;9.820;2023-04-26T17:58:25;96264.69;;;20.43;46.26
40596;BME280;26304;48.794;9.820;2023-04-26T18:04:09;96269.22;;;20.35;46.34
40596;BME280;26304;48.794;9.820;2023-04-26T18:09:51;96271.50;;;20.37;46.35
40596;BME280;26304;48.794;9.820;2023-04-26T18:15:33;96277.94;;;20.21;46.81
40596;BME280;26304;48.794;9.820;2023-04-26T18:21:17;96285.13;;;20.13;46.52
40596;BME280;26304;48.794;9.820;2023-04-26T18:27:00;96284.78;;;20.08;46.51
40596;BME280;26304;48.794;9.820;2023-04-26T18:32:42;96291.19;;;20.07;46.39
40596;BME280;26304;48.794;9.820;2023-04-26T18:38:26;96287.06;;;19.99;46.30
40596;BME280;26304;48.794;9.820;2023-04-26T18:44:09;96294.53;;;20.25;45.61
40596;BME280;26304;48.794;9.820;2023-04-26T18:49:53;96290.03;;;20.19;46.16
40596;BME280;26304;48.794;9.820;2023-04-26T18:55:37;96299.50;;;20.09;46.91
40596;BME280;26304;48.794;9.820;2023-04-26T19:01:19;96318.34;;;20.11;45.57
40596;BME280;26304;48.794;9.820;2023-04-26T19:07:01;96323.59;;;20.14;46.34
40596;BME280;26304;48.794;9.820;2023-04-26T19:12:45;96324.03;;;19.48;43.40
40596;BME280;26304;48.794;9.820;2023-04-26T19:18:28;96334.88;;;19.00;42.45
40596;BME280;26304;48.794;9.820;2023-04-26T19:24:10;96332.09;;;18.60;40.31
40596;BME280;26304;48.794;9.820;2023-04-26T19:29:56;96335.88;;;18.63;39.57
40596;BME280;26304;48.794;9.820;2023-04-26T19:35:38;96331.28;;;18.38;40.60
40596;BME280;26304;48.794;9.820;2023-04-26T19:41:21;96341.84;;;18.45;40.76
40596;BME280;26304;48.794;9.820;2023-04-26T19:47:05;96348.72;;;18.75;41.51
40596;BME280;26304;48.794;9.820;2023-04-26T19:52:48;96363.81;;;18.85;42.45
40596;BME280;26304;48.794;9.820;2023-04-26T19:58:31;96361.97;;;18.90;42.81
40596;BME280;26304;48.794;9.820;2023-04-26T20:04:15;96358.59;;;18.89;43.43
40596;BME280;26304;48.794;9.820;2023-04-26T20:09:57;96371.72;;;18.85;43.40
40596;BME280;26304;48.794;9.820;2023-04-26T20:15:40;96377.41;;;18.87;43.86
40596;BME280;26304;48.794;9.820;2023-04-26T20:21:24;96383.03;;;18.86;43.84
40596;BME280;26304;48.794;9.820;2023-04-26T20:27:07;96383.41;;;18.84;43.98
40596;BME280;26304;48.794;9.820;2023-04-26T20:32:49;96373.22;;;18.83;43.95
40596;BME280;26304;48.794;9.820;2023-04-26T20:38:36;96369.81;;;18.82;44.03
40596;BME280;26304;48.794;9.820;2023-04-26T20:44:21;96370.16;;;18.77;44.31
40596;BME280;26304;48.794;9.820;2023-04-26T20:50:05;96372.81;;;18.77;44.13
40596;BME280;26304;48.794;9.820;2023-04-26T20:55:50;96372.44;;;18.75;44.47
40596;BME280;26304;48.794;9.820;2023-04-26T21:01:33;96360.38;;;18.74;44.23
40596;BME280;26304;48.794;9.820;2023-04-26T21:07:15;96364.16;;;18.73;44.41
40596;BME280;26304;48.794;9.820;2023-04-26T21:12:59;96361.13;;;18.71;44.55
40596;BME280;26304;48.794;9.820;2023-04-26T21:18:41;96365.63;;;18.70;45.11
40596;BME280;26304;48.794;9.820;2023-04-26T21:24:24;96367.53;;;18.70;44.73
40596;BME280;26304;48.794;9.820;2023-04-26T21:30:09;96368.63;;;18.69;44.62
40596;BME280;26304;48.794;9.820;2023-04-26T21:35:51;96366.38;;;18.67;45.12
40596;BME280;26304;48.794;9.820;2023-04-26T21:41:33;96370.50;;;18.65;45.38
40596;BME280;26304;48.794;9.820;2023-04-26T21:47:17;96370.84;;;18.63;45.50
40596;BME280;26304;48.794;9.820;2023-04-26T21:53:00;96374.63;;;18.62;45.00
40596;BME280;26304;48.794;9.820;2023-04-26T21:58:43;96380.28;;;18.61;45.01
40596;BME280;26304;48.794;9.820;2023-04-26T22:04:26;96378.38;;;18.61;44.99
40596;BME280;26304;48.794;9.820;2023-04-26T22:10:09;96376.91;;;18.64;45.62
40596;BME280;26304;48.794;9.820;2023-04-26T22:15:52;96391.16;;;18.59;45.54
40596;BME280;26304;48.794;9.820;2023-04-26T22:21:35;96389.63;;;18.55;45.42
40596;BME280;26304;48.794;9.820;2023-04-26T22:27:18;96385.50;;;18.54;45.14
40596;BME280;26304;48.794;9.820;2023-04-26T22:33:00;96376.84;;;18.49;45.75
40596;BME280;26304;48.794;9.820;2023-04-26T22:38:44;96387.00;;;18.51;45.83
40596;BME280;26304;48.794;9.820;2023-04-26T22:44:26;96388.84;;;18.50;45.76
40596;BME280;26304;48.794;9.820;2023-04-26T22:50:10;96391.09;;;18.48;45.79
40596;BME280;26304;48.794;9.820;2023-04-26T22:55:55;96379.84;;;18.48;45.48
40596;BME280;26304;48.794;9.820;2023-04-26T23:01:37;96373.78;;;18.44;45.71
40596;BME280;26304;48.794;9.820;2023-04-26T23:07:19;96385.81;;;18.41;45.63
40596;BME280;26304;48.794;9.820;2023-04-26T23:13:03;96390.31;;;18.44;46.30
40596;BME280;26304;48.794;9.820;2023-04-26T23:18:46;96392.94;;;18.41;45.88
40596;BME280;26304;48.794;9.820;2023-04-26T23:24:28;96403.47;;;18.37;46.20
40596;BME280;26304;48.794;9.820;2023-04-26T23:30:13;96406.44;;;18.32;46.36
40596;BME280;26304;48.794;9.820;2023-04-26T23:35:55;96407.94;;;18.33;46.26
40596;BME280;26304;48.794;9.820;2023-04-26T23:41:38;96401.53;;;18.30;46.41
40596;BME280;26304;48.794;9.820;2023-04-26T23:47:22;96403.03;;;18.28;46.32
40596;BME280;26304;48.794;9.820;2023-04-26T23:53:04;96402.28;;;18.27;46.59
40596;BME280;26304;48.794;9.820;2023-04-26T23:58:46;96397.00;;;18.24;46.21
